sensor_id;sensor_type;location;lat;lon;timestamp;pressure;altitude;pressure_sealevel;temperature;humidity
45541;BME280;31265;49.680;8.608;2023-05-10T00:00:37;99911.13;;;13.30;100.00
45541;BME280;31265;49.680;8.608;2023-05-10T00:03:05;99910.53;;;13.31;100.00
45541;BME280;31265;49.680;8.608;2023-05-10T00:05:34;99910.22;;;13.37;100.00
45541;BME280;31265;49.680;8.608;2023-05-10T00:08:02;99907.00;;;13.41;100.00
45541;BME280;31265;49.680;8.608;2023-05-10T00:10:30;99913.47;;;13.33;100.00
45541;BME280;31265;49.680;8.608;2023-05-10T00:12:58;99896.75;;;13.33;100.00
45541;BME280;31265;49.680;8.608;2023-05-10T00:15:27;99914.66;;;13.30;100.00
45541;BME280;31265;49.680;8.608;2023-05-10T00:17:58;99910.53;;;13.31;100.00
45541;BME280;31265;49.680;8.608;2023-05-10T00:20:27;99914.66;;;13.30;100.00
45541;BME280;31265;49.680;8.608;2023-05-10T00:22:56;99907.91;;;13.24;100.00
45541;BME280;31265;49.680;8.608;2023-05-10T00:25:24;99918.19;;;13.21;100.00
45541;BME280;31265;49.680;8.608;2023-05-10T00:27:53;99906.88;;;13.29;100.00
45541;BME280;31265;49.680;8.608;2023-05-10T00:30:22;99909.97;;;13.23;100.00
45541;BME280;31265;49.680;8.608;2023-05-10T00:32:50;99921.13;;;13.23;100.00
45541;BME280;31265;49.680;8.608;2023-05-10T00:35:22;99914.94;;;13.25;100.00
45541;BME280;31265;49.680;8.608;2023-05-10T00:37:50;99928.00;;;13.22;100.00
45541;BME280;31265;49.680;8.608;2023-05-10T00:40:20;99913.91;;;13.20;100.00
45541;BME280;31265;49.680;8.608;2023-05-10T00:42:54;99915.25;;;13.19;100.00
45541;BME280;31265;49.680;8.608;2023-05-10T00:45:24;99917.75;;;13.15;100.00
45541;BME280;31265;49.680;8.608;2023-05-10T00:47:52;99923.47;;;13.17;100.00
45541;BME280;31265;49.680;8.608;2023-05-10T00:50:24;99926.88;;;13.06;100.00
45541;BME280;31265;49.680;8.608;2023-05-10T00:52:52;99928.47;;;13.09;100.00
45541;BME280;31265;49.680;8.608;2023-05-10T00:55:22;99922.31;;;13.10;100.00
45541;BME280;31265;49.680;8.608;2023-05-10T00:57:50;99919.97;;;13.07;100.00
45541;BME280;31265;49.680;8.608;2023-05-10T01:00:20;99911.31;;;13.03;100.00
45541;BME280;31265;49.680;8.608;2023-05-10T01:02:48;99927.16;;;13.00;100.00
45541;BME280;31265;49.680;8.608;2023-05-10T01:05:18;99923.94;;;13.04;100.00
45541;BME280;31265;49.680;8.608;2023-05-10T01:07:48;99919.56;;;13.01;100.00
45541;BME280;31265;49.680;8.608;2023-05-10T01:10:17;99926.44;;;13.00;100.00
45541;BME280;31265;49.680;8.608;2023-05-10T01:12:46;99922.78;;;12.97;100.00
45541;BME280;31265;49.680;8.608;2023-05-10T01:15:16;99934.50;;;12.96;100.00
45541;BME280;31265;49.680;8.608;2023-05-10T01:17:46;99920.88;;;13.00;100.00
45541;BME280;31265;49.680;8.608;2023-05-10T01:20:15;99933.75;;;12.95;100.00
45541;BME280;31265;49.680;8.608;2023-05-10T01:23:12;99926.03;;;12.94;100.00
45541;BME280;31265;49.680;8.608;2023-05-10T01:26:19;99935.69;;;12.93;100.00
45541;BME280;31265;49.680;8.608;2023-05-10T01:29:13;99937.28;;;12.96;100.00
45541;BME280;31265;49.680;8.608;2023-05-10T01:34:49;99945.50;;;12.94;100.00
45541;BME280;31265;49.680;8.608;2023-05-10T01:37:24;99946.97;;;12.95;100.00
45541;BME280;31265;49.680;8.608;2023-05-10T01:39:58;99946.25;;;12.94;100.00
45541;BME280;31265;49.680;8.608;2023-05-10T01:42:31;99941.53;;;12.97;100.00
45541;BME280;31265;49.680;8.608;2023-05-10T01:45:09;99944.03;;;12.93;100.00
45541;BME280;31265;49.680;8.608;2023-05-10T01:47:43;99948.00;;;12.89;100.00
45541;BME280;31265;49.680;8.608;2023-05-10T01:50:17;99948.56;;;12.88;100.00
45541;BME280;31265;49.680;8.608;2023-05-10T01:52:50;99954.44;;;12.82;100.00
45541;BME280;31265;49.680;8.608;2023-05-10T01:55:21;99949.91;;;12.87;100.00
45541;BME280;31265;49.680;8.608;2023-05-10T01:57:57;99953.88;;;12.84;100.00
45541;BME280;31265;49.680;8.608;2023-05-10T02:00:27;99960.59;;;12.81;100.00
45541;BME280;31265;49.680;8.608;2023-05-10T02:03:00;99964.56;;;12.78;100.00
45541;BME280;31265;49.680;8.608;2023-05-10T02:05:32;99968.38;;;12.82;100.00
45541;BME280;31265;49.680;8.608;2023-05-10T02:08:02;99960.91;;;12.85;100.00
45541;BME280;31265;49.680;8.608;2023-05-10T02:10:34;99958.25;;;12.87;100.00
45541;BME280;31265;49.680;8.608;2023-05-10T02:13:05;99969.41;;;12.87;100.00
45541;BME280;31265;49.680;8.608;2023-05-10T02:15:36;99971.16;;;12.82;100.00
45541;BME280;31265;49.680;8.608;2023-05-10T02:18:07;99966.91;;;12.81;100.00
45541;BME280;31265;49.680;8.608;2023-05-10T02:20:37;99969.09;;;12.83;100.00
45541;BME280;31265;49.680;8.608;2023-05-10T02:23:07;99965.16;;;12.76;100.00
45541;BME280;31265;49.680;8.608;2023-05-10T02:25:38;99962.50;;;12.78;100.00
45541;BME280;31265;49.680;8.608;2023-05-10T02:28:08;99973.63;;;12.78;100.00
45541;BME280;31265;49.680;8.608;2023-05-10T02:30:38;99971.47;;;12.77;100.00
45541;BME280;31265;49.680;8.608;2023-05-10T02:33:08;99968.53;;;12.75;100.00
45541;BME280;31265;49.680;8.608;2023-05-10T02:35:38;99976.41;;;12.78;100.00
45541;BME280;31265;49.680;8.608;2023-05-10T02:38:08;99972.75;;;12.76;100.00
45541;BME280;31265;49.680;8.608;2023-05-10T02:40:38;99965.16;;;12.76;100.00
45541;BME280;31265;49.680;8.608;2023-05-10T02:43:12;99971.88;;;12.73;100.00
45541;BME280;31265;49.680;8.608;2023-05-10T02:45:41;99978.78;;;12.72;100.00
45541;BME280;31265;49.680;8.608;2023-05-10T02:48:12;99976.00;;;12.72;100.00
45541;BME280;31265;49.680;8.608;2023-05-10T02:50:44;99976.00;;;12.72;100.00
45541;BME280;31265;49.680;8.608;2023-05-10T02:53:18;99973.38;;;12.74;100.00
45541;BME280;31265;49.680;8.608;2023-05-10T02:55:50;99981.13;;;12.76;100.00
45541;BME280;31265;49.680;8.608;2023-05-10T02:58:19;99973.22;;;12.72;100.00
45541;BME280;31265;49.680;8.608;2023-05-10T03:00:48;99974.97;;;12.67;100.00
45541;BME280;31265;49.680;8.608;2023-05-10T03:03:19;99976.44;;;12.68;100.00
45541;BME280;31265;49.680;8.608;2023-05-10T03:05:50;99978.31;;;12.66;100.00
45541;BME280;31265;49.680;8.608;2023-05-10T03:08:21;99976.28;;;12.66;100.00
45541;BME280;31265;49.680;8.608;2023-05-10T03:10:58;99977.16;;;12.69;100.00
45541;BME280;31265;49.680;8.608;2023-05-10T03:13:32;99981.25;;;12.68;100.00
45541;BME280;31265;49.680;8.608;2023-05-10T03:16:08;99985.38;;;12.67;100.00
45541;BME280;31265;49.680;8.608;2023-05-10T03:18:44;99981.09;;;12.66;100.00
45541;BME280;31265;49.680;8.608;2023-05-10T03:21:13;99980.09;;;12.71;100.00
45541;BME280;31265;49.680;8.608;2023-05-10T03:23:50;99986.81;;;12.68;100.00
45541;BME280;31265;49.680;8.608;2023-05-10T03:26:23;99991.25;;;12.71;100.00
45541;BME280;31265;49.680;8.608;2023-05-10T03:29:01;99993.13;;;12.78;100.00
45541;BME280;31265;49.680;8.608;2023-05-10T03:31:30;99990.34;;;12.78;100.00
45541;BME280;31265;49.680;8.608;2023-05-10T03:34:00;100002.34;;;12.81;100.00
45541;BME280;31265;49.680;8.608;2023-05-10T03:36:29;99994.75;;;12.81;100.00
45541;BME280;31265;49.680;8.608;2023-05-10T03:39:00;99996.22;;;12.82;100.00
45541;BME280;31265;49.680;8.608;2023-05-10T03:41:29;99999.00;;;12.82;100.00
45541;BME280;31265;49.680;8.608;2023-05-10T03:44:00;99984.50;;;12.84;100.00
45541;BME280;31265;49.680;8.608;2023-05-10T03:46:28;99985.53;;;12.88;100.00
45541;BME280;31265;49.680;8.608;2023-05-10T03:48:57;99996.78;;;12.90;100.00
45541;BME280;31265;49.680;8.608;2023-05-10T03:51:27;99991.50;;;12.95;100.00
45541;BME280;31265;49.680;8.608;2023-05-10T03:53:55;99988.59;;;12.93;100.00
45541;BME280;31265;49.680;8.608;2023-05-10T03:56:25;99986.81;;;12.87;100.00
45541;BME280;31265;49.680;8.608;2023-05-10T03:58:55;99985.94;;;12.85;100.00
45541;BME280;31265;49.680;8.608;2023-05-10T04:01:23;99983.91;;;12.85;100.00
45541;BME280;31265;49.680;8.608;2023-05-10T04:03:52;99984.66;;;12.86;100.00
45541;BME280;31265;49.680;8.608;2023-05-10T04:06:22;99979.66;;;12.84;100.00
45541;BME280;31265;49.680;8.608;2023-05-10T04:08:53;99983.91;;;12.85;100.00
45541;BME280;31265;49.680;8.608;2023-05-10T04:11:23;99978.78;;;12.82;100.00
45541;BME280;31265;49.680;8.608;2023-05-10T04:13:51;99985.53;;;12.79;100.00
45541;BME280;31265;49.680;8.608;2023-05-10T04:16:19;99995.91;;;12.78;100.00
45541;BME280;31265;49.680;8.608;2023-05-10T04:18:48;99992.41;;;12.78;100.00
45541;BME280;31265;49.680;8.608;2023-05-10T04:21:16;100005.00;;;12.88;100.00
45541;BME280;31265;49.680;8.608;2023-05-10T04:23:45;100005.28;;;12.83;100.00
45541;BME280;31265;49.680;8.608;2023-05-10T04:26:14;100009.41;;;12.82;100.00
45541;BME280;31265;49.680;8.608;2023-05-10T04:28:45;100009.81;;;12.78;100.00
45541;BME280;31265;49.680;8.608;2023-05-10T04:31:13;100020.09;;;12.76;100.00
45541;BME280;31265;49.680;8.608;2023-05-10T04:33:42;100017.75;;;12.72;100.00
45541;BME280;31265;49.680;8.608;2023-05-10T04:36:13;100017.91;;;12.74;100.00
45541;BME280;31265;49.680;8.608;2023-05-10T04:38:41;100022.13;;;12.75;100.00
45541;BME280;31265;49.680;8.608;2023-05-10T04:41:11;100019.50;;;12.77;100.00
45541;BME280;31265;49.680;8.608;2023-05-10T04:43:41;100021.41;;;12.75;100.00
45541;BME280;31265;49.680;8.608;2023-05-10T04:46:09;100016.13;;;12.69;100.00
45541;BME280;31265;49.680;8.608;2023-05-10T04:48:38;100019.34;;;12.75;100.00
45541;BME280;31265;49.680;8.608;2023-05-10T04:51:07;100017.75;;;12.82;100.00
45541;BME280;31265;49.680;8.608;2023-05-10T04:53:48;100028.31;;;12.83;100.00
45541;BME280;31265;49.680;8.608;2023-05-10T04:56:32;100033.88;;;12.83;100.00
45541;BME280;31265;49.680;8.608;2023-05-10T04:59:02;100034.00;;;12.85;100.00
45541;BME280;31265;49.680;8.608;2023-05-10T05:01:30;100037.53;;;12.96;100.00
45541;BME280;31265;49.680;8.608;2023-05-10T05:04:02;100041.63;;;12.95;100.00
45541;BME280;31265;49.680;8.608;2023-05-10T05:06:30;100042.81;;;13.01;100.00
45541;BME280;31265;49.680;8.608;2023-05-10T05:09:03;100054.22;;;12.96;100.00
45541;BME280;31265;49.680;8.608;2023-05-10T05:11:34;100046.03;;;12.98;100.00
45541;BME280;31265;49.680;8.608;2023-05-10T05:14:14;100049.56;;;12.98;100.00
45541;BME280;31265;49.680;8.608;2023-05-10T05:16:44;100047.34;;;12.87;100.00
45541;BME280;31265;49.680;8.608;2023-05-10T05:19:16;100050.44;;;13.10;100.00
45541;BME280;31265;49.680;8.608;2023-05-10T05:21:55;100050.16;;;13.16;100.00
45541;BME280;31265;49.680;8.608;2023-05-10T05:24:26;100047.34;;;13.16;100.00
45541;BME280;31265;49.680;8.608;2023-05-10T05:27:04;100050.13;;;13.26;100.00
45541;BME280;31265;49.680;8.608;2023-05-10T05:29:34;100040.47;;;13.37;100.00
45541;BME280;31265;49.680;8.608;2023-05-10T05:32:06;100049.13;;;13.41;100.00
45541;BME280;31265;49.680;8.608;2023-05-10T05:34:35;100039.56;;;13.44;100.00
45541;BME280;31265;49.680;8.608;2023-05-10T05:37:04;100040.44;;;13.56;100.00
45541;BME280;31265;49.680;8.608;2023-05-10T05:39:35;100054.50;;;13.58;100.00
45541;BME280;31265;49.680;8.608;2023-05-10T05:42:04;100043.22;;;13.56;100.00
45541;BME280;31265;49.680;8.608;2023-05-10T05:44:34;100045.84;;;13.64;100.00
45541;BME280;31265;49.680;8.608;2023-05-10T05:47:03;100054.50;;;13.58;100.00
45541;BME280;31265;49.680;8.608;2023-05-10T05:49:35;100052.13;;;13.64;100.00
45541;BME280;31265;49.680;8.608;2023-05-10T05:52:04;100055.06;;;13.66;100.00
45541;BME280;31265;49.680;8.608;2023-05-10T05:54:32;100064.47;;;13.61;100.00
45541;BME280;31265;49.680;8.608;2023-05-10T05:57:00;100061.38;;;13.67;100.00
45541;BME280;31265;49.680;8.608;2023-05-10T05:59:30;100070.91;;;13.73;100.00
45541;BME280;31265;49.680;8.608;2023-05-10T06:01:59;100064.88;;;13.67;100.00
45541;BME280;31265;49.680;8.608;2023-05-10T06:04:28;100070.50;;;13.58;100.00
45541;BME280;31265;49.680;8.608;2023-05-10T06:06:57;100070.19;;;13.73;100.00
45541;BME280;31265;49.680;8.608;2023-05-10T06:09:25;100073.66;;;13.83;100.00
45541;BME280;31265;49.680;8.608;2023-05-10T06:11:53;100077.31;;;13.86;100.00
45541;BME280;31265;49.680;8.608;2023-05-10T06:14:22;100079.13;;;13.71;100.00
45541;BME280;31265;49.680;8.608;2023-05-10T06:16:50;100089.38;;;13.79;100.00
45541;BME280;31265;49.680;8.608;2023-05-10T06:19:20;100087.94;;;13.77;100.00
45541;BME280;31265;49.680;8.608;2023-05-10T06:21:49;100091.56;;;13.90;100.00
45541;BME280;31265;49.680;8.608;2023-05-10T06:24:19;100093.34;;;13.85;100.00
45541;BME280;31265;49.680;8.608;2023-05-10T06:26:48;100092.03;;;13.76;100.00
45541;BME280;31265;49.680;8.608;2023-05-10T06:29:17;100093.94;;;13.64;100.00
45541;BME280;31265;49.680;8.608;2023-05-10T06:31:46;100091.13;;;13.84;100.00
45541;BME280;31265;49.680;8.608;2023-05-10T06:34:14;100098.56;;;14.01;100.00
45541;BME280;31265;49.680;8.608;2023-05-10T06:36:45;100094.44;;;14.02;100.00
45541;BME280;31265;49.680;8.608;2023-05-10T06:39:13;100099.59;;;14.05;100.00
45541;BME280;31265;49.680;8.608;2023-05-10T06:41:43;100098.06;;;14.14;100.00
45541;BME280;31265;49.680;8.608;2023-05-10T06:44:11;100094.31;;;14.31;100.00
45541;BME280;31265;49.680;8.608;2023-05-10T06:46:40;100093.75;;;14.32;100.00
45541;BME280;31265;49.680;8.608;2023-05-10T06:49:09;100094.28;;;14.72;100.00
45541;BME280;31265;49.680;8.608;2023-05-10T06:51:37;100091.16;;;14.77;100.00
45541;BME280;31265;49.680;8.608;2023-05-10T06:54:07;100083.44;;;14.88;100.00
45541;BME280;31265;49.680;8.608;2023-05-10T06:56:35;100098.91;;;15.22;100.00
45541;BME280;31265;49.680;8.608;2023-05-10T06:59:04;100093.13;;;15.30;100.00
45541;BME280;31265;49.680;8.608;2023-05-10T07:01:32;100098.41;;;15.14;100.00
45541;BME280;31265;49.680;8.608;2023-05-10T07:04:01;100097.47;;;14.99;100.00
45541;BME280;31265;49.680;8.608;2023-05-10T07:06:29;100093.22;;;14.98;100.00
45541;BME280;31265;49.680;8.608;2023-05-10T07:09:00;100091.91;;;14.99;100.00
45541;BME280;31265;49.680;8.608;2023-05-10T07:11:30;100100.78;;;15.08;100.00
45541;BME280;31265;49.680;8.608;2023-05-10T07:13:58;100094.47;;;15.07;100.00
45541;BME280;31265;49.680;8.608;2023-05-10T07:16:26;100106.19;;;15.15;100.00
45541;BME280;31265;49.680;8.608;2023-05-10T07:18:55;100099.69;;;15.34;100.00
45541;BME280;31265;49.680;8.608;2023-05-10T07:21:24;100100.75;;;15.51;100.00
45541;BME280;31265;49.680;8.608;2023-05-10T07:23:55;100093.97;;;15.65;100.00
45541;BME280;31265;49.680;8.608;2023-05-10T07:26:23;100099.34;;;15.40;100.00
45541;BME280;31265;49.680;8.608;2023-05-10T07:28:53;100103.56;;;15.29;100.00
45541;BME280;31265;49.680;8.608;2023-05-10T07:31:22;100098.19;;;15.21;100.00
45541;BME280;31265;49.680;8.608;2023-05-10T07:33:50;100108.22;;;15.36;100.00
45541;BME280;31265;49.680;8.608;2023-05-10T07:36:18;100094.69;;;15.21;100.00
45541;BME280;31265;49.680;8.608;2023-05-10T07:38:46;100110.38;;;15.26;100.00
45541;BME280;31265;49.680;8.608;2023-05-10T07:41:16;100109.00;;;15.48;100.00
45541;BME280;31265;49.680;8.608;2023-05-10T07:43:44;100100.69;;;15.72;100.00
45541;BME280;31265;49.680;8.608;2023-05-10T07:46:15;100105.94;;;15.44;100.00
45541;BME280;31265;49.680;8.608;2023-05-10T07:48:43;100108.13;;;15.79;100.00
45541;BME280;31265;49.680;8.608;2023-05-10T07:51:11;100113.06;;;16.26;100.00
45541;BME280;31265;49.680;8.608;2023-05-10T07:53:40;100112.31;;;16.13;100.00
45541;BME280;31265;49.680;8.608;2023-05-10T07:56:22;100106.56;;;16.59;100.00
45541;BME280;31265;49.680;8.608;2023-05-10T07:58:52;100110.22;;;16.61;100.00
45541;BME280;31265;49.680;8.608;2023-05-10T08:01:22;100111.31;;;17.29;100.00
45541;BME280;31265;49.680;8.608;2023-05-10T08:03:51;100109.81;;;17.02;100.00
45541;BME280;31265;49.680;8.608;2023-05-10T08:06:20;100112.00;;;17.04;100.00
45541;BME280;31265;49.680;8.608;2023-05-10T08:08:49;100117.13;;;16.95;100.00
45541;BME280;31265;49.680;8.608;2023-05-10T08:11:19;100113.72;;;17.34;100.00
45541;BME280;31265;49.680;8.608;2023-05-10T08:13:49;100111.53;;;17.58;100.00
45541;BME280;31265;49.680;8.608;2023-05-10T08:16:19;100108.00;;;17.58;100.00
45541;BME280;31265;49.680;8.608;2023-05-10T08:18:49;100113.88;;;17.76;100.00
45541;BME280;31265;49.680;8.608;2023-05-10T08:21:17;100111.34;;;17.17;100.00
45541;BME280;31265;49.680;8.608;2023-05-10T08:23:46;100117.41;;;17.25;100.00
45541;BME280;31265;49.680;8.608;2023-05-10T08:26:18;100111.75;;;17.11;100.00
45541;BME280;31265;49.680;8.608;2023-05-10T08:28:47;100112.94;;;17.08;100.00
45541;BME280;31265;49.680;8.608;2023-05-10T08:31:16;100110.69;;;17.30;100.00
45541;BME280;31265;49.680;8.608;2023-05-10T08:33:45;100118.06;;;17.12;100.00
45541;BME280;31265;49.680;8.608;2023-05-10T08:36:14;100115.13;;;17.22;100.00
45541;BME280;31265;49.680;8.608;2023-05-10T08:38:50;100117.81;;;17.71;100.00
45541;BME280;31265;49.680;8.608;2023-05-10T08:41:19;100121.00;;;17.65;100.00
45541;BME280;31265;49.680;8.608;2023-05-10T08:47:49;100128.59;;;18.97;100.00
45541;BME280;31265;49.680;8.608;2023-05-10T08:50:27;100126.88;;;19.94;100.00
45541;BME280;31265;49.680;8.608;2023-05-10T08:53:04;100130.97;;;20.07;100.00
45541;BME280;31265;49.680;8.608;2023-05-10T08:55:57;100130.06;;;20.34;100.00
45541;BME280;31265;49.680;8.608;2023-05-10T08:58:36;100137.59;;;20.61;100.00
45541;BME280;31265;49.680;8.608;2023-05-10T09:01:15;100124.09;;;20.10;100.00
45541;BME280;31265;49.680;8.608;2023-05-10T09:04:06;100133.06;;;19.91;100.00
45541;BME280;31265;49.680;8.608;2023-05-10T09:07:19;100135.88;;;20.23;100.00
45541;BME280;31265;49.680;8.608;2023-05-10T09:10:23;100129.78;;;20.12;100.00
45541;BME280;31265;49.680;8.608;2023-05-10T09:12:56;100141.38;;;19.73;100.00
45541;BME280;31265;49.680;8.608;2023-05-10T09:15:25;100141.34;;;19.43;100.00
45541;BME280;31265;49.680;8.608;2023-05-10T09:17:55;100143.44;;;19.43;100.00
45541;BME280;31265;49.680;8.608;2023-05-10T09:20:25;100154.03;;;19.58;100.00
45541;BME280;31265;49.680;8.608;2023-05-10T09:22:53;100139.06;;;19.99;100.00
45541;BME280;31265;49.680;8.608;2023-05-10T09:25:23;100143.69;;;19.63;100.00
45541;BME280;31265;49.680;8.608;2023-05-10T09:27:52;100145.16;;;20.41;100.00
45541;BME280;31265;49.680;8.608;2023-05-10T09:30:24;100147.97;;;20.41;100.00
45541;BME280;31265;49.680;8.608;2023-05-10T09:32:54;100146.88;;;20.64;100.00
45541;BME280;31265;49.680;8.608;2023-05-10T09:35:23;100150.78;;;20.41;100.00
45541;BME280;31265;49.680;8.608;2023-05-10T09:38:00;100141.84;;;20.78;100.00
45541;BME280;31265;49.680;8.608;2023-05-10T09:40:30;100146.84;;;20.80;100.00
45541;BME280;31265;49.680;8.608;2023-05-10T09:43:00;100142.22;;;20.07;100.00
45541;BME280;31265;49.680;8.608;2023-05-10T09:45:30;100145.81;;;19.78;100.00
45541;BME280;31265;49.680;8.608;2023-05-10T09:48:02;100167.16;;;19.67;100.00
45541;BME280;31265;49.680;8.608;2023-05-10T09:50:31;100171.88;;;19.19;100.00
45541;BME280;31265;49.680;8.608;2023-05-10T09:53:02;100159.06;;;19.46;100.00
45541;BME280;31265;49.680;8.608;2023-05-10T09:55:40;100156.09;;;19.28;100.00
45541;BME280;31265;49.680;8.608;2023-05-10T09:58:09;100161.50;;;18.80;100.00
45541;BME280;31265;49.680;8.608;2023-05-10T10:00:40;100170.59;;;19.22;100.00
45541;BME280;31265;49.680;8.608;2023-05-10T10:03:12;100172.78;;;19.24;100.00
45541;BME280;31265;49.680;8.608;2023-05-10T10:05:41;100177.56;;;19.21;100.00
45541;BME280;31265;49.680;8.608;2023-05-10T10:08:11;100171.03;;;19.03;100.00
45541;BME280;31265;49.680;8.608;2023-05-10T10:10:41;100173.19;;;19.18;100.00
45541;BME280;31265;49.680;8.608;2023-05-10T10:13:14;100169.34;;;19.25;100.00
45541;BME280;31265;49.680;8.608;2023-05-10T10:15:46;100166.97;;;19.06;100.00
45541;BME280;31265;49.680;8.608;2023-05-10T10:18:18;100173.47;;;18.95;100.00
45541;BME280;31265;49.680;8.608;2023-05-10T10:20:52;100171.44;;;19.25;100.00
45541;BME280;31265;49.680;8.608;2023-05-10T10:23:22;100162.19;;;19.52;100.00
45541;BME280;31265;49.680;8.608;2023-05-10T10:25:52;100173.72;;;19.88;100.00
45541;BME280;31265;49.680;8.608;2023-05-10T10:28:26;100163.34;;;20.38;100.00
45541;BME280;31265;49.680;8.608;2023-05-10T10:31:10;100174.59;;;20.06;100.00
45541;BME280;31265;49.680;8.608;2023-05-10T10:33:56;100171.56;;;19.86;100.00
45541;BME280;31265;49.680;8.608;2023-05-10T10:36:29;100174.50;;;20.52;100.00
45541;BME280;31265;49.680;8.608;2023-05-10T10:38:58;100181.94;;;20.77;98.58
45541;BME280;31265;49.680;8.608;2023-05-10T10:41:35;100185.84;;;20.54;100.00
45541;BME280;31265;49.680;8.608;2023-05-10T10:44:33;100187.59;;;20.29;100.00
45541;BME280;31265;49.680;8.608;2023-05-10T10:47:24;100183.41;;;20.14;100.00
45541;BME280;31265;49.680;8.608;2023-05-10T10:50:04;100189.13;;;20.32;98.33
45541;BME280;31265;49.680;8.608;2023-05-10T10:52:34;100183.75;;;20.54;98.84
45541;BME280;31265;49.680;8.608;2023-05-10T10:55:04;100185.41;;;20.59;98.01
45541;BME280;31265;49.680;8.608;2023-05-10T10:57:47;100177.78;;;20.62;95.77
45541;BME280;31265;49.680;8.608;2023-05-10T11:00:27;100173.91;;;21.21;88.19
45541;BME280;31265;49.680;8.608;2023-05-10T11:02:59;100175.41;;;21.58;92.10
45541;BME280;31265;49.680;8.608;2023-05-10T11:05:38;100176.16;;;21.76;88.18
45541;BME280;31265;49.680;8.608;2023-05-10T11:08:10;100182.94;;;21.69;84.17
45541;BME280;31265;49.680;8.608;2023-05-10T11:10:40;100169.69;;;21.56;91.81
45541;BME280;31265;49.680;8.608;2023-05-10T11:13:27;100175.97;;;21.90;83.55
45541;BME280;31265;49.680;8.608;2023-05-10T11:15:57;100181.78;;;21.40;80.73
45541;BME280;31265;49.680;8.608;2023-05-10T11:18:27;100184.31;;;20.82;79.59
45541;BME280;31265;49.680;8.608;2023-05-10T11:20:58;100171.97;;;20.26;88.49
45541;BME280;31265;49.680;8.608;2023-05-10T11:23:31;100178.00;;;19.89;92.45
45541;BME280;31265;49.680;8.608;2023-05-10T11:26:00;100189.59;;;20.11;92.49
45541;BME280;31265;49.680;8.608;2023-05-10T11:28:30;100188.88;;;20.10;94.26
45541;BME280;31265;49.680;8.608;2023-05-10T11:31:02;100195.03;;;20.07;89.50
45541;BME280;31265;49.680;8.608;2023-05-10T11:33:30;100180.41;;;20.26;84.22
45541;BME280;31265;49.680;8.608;2023-05-10T11:35:59;100190.31;;;20.43;90.24
45541;BME280;31265;49.680;8.608;2023-05-10T11:38:32;100195.59;;;20.67;86.05
45541;BME280;31265;49.680;8.608;2023-05-10T11:41:02;100194.63;;;20.60;85.68
45541;BME280;31265;49.680;8.608;2023-05-10T11:43:32;100190.84;;;20.87;82.95
45541;BME280;31265;49.680;8.608;2023-05-10T11:46:00;100196.31;;;20.83;79.13
45541;BME280;31265;49.680;8.608;2023-05-10T11:48:29;100195.69;;;20.69;83.29
45541;BME280;31265;49.680;8.608;2023-05-10T11:50:57;100189.66;;;20.76;84.04
45541;BME280;31265;49.680;8.608;2023-05-10T11:53:26;100191.97;;;20.64;86.25
45541;BME280;31265;49.680;8.608;2023-05-10T11:55:55;100193.00;;;20.55;87.86
45541;BME280;31265;49.680;8.608;2023-05-10T11:58:24;100196.06;;;20.61;84.97
45541;BME280;31265;49.680;8.608;2023-05-10T12:00:54;100195.22;;;20.74;81.22
45541;BME280;31265;49.680;8.608;2023-05-10T12:03:23;100198.25;;;20.63;80.46
45541;BME280;31265;49.680;8.608;2023-05-10T12:05:51;100206.78;;;20.80;77.97
45541;BME280;31265;49.680;8.608;2023-05-10T12:08:21;100198.78;;;20.75;79.54
45541;BME280;31265;49.680;8.608;2023-05-10T12:10:50;100198.25;;;20.63;83.53
45541;BME280;31265;49.680;8.608;2023-05-10T12:13:20;100193.59;;;20.85;79.84
45541;BME280;31265;49.680;8.608;2023-05-10T12:15:48;100187.69;;;21.13;77.71
45541;BME280;31265;49.680;8.608;2023-05-10T12:18:22;100185.00;;;21.86;75.90
45541;BME280;31265;49.680;8.608;2023-05-10T12:20:51;100185.50;;;22.37;74.91
45541;BME280;31265;49.680;8.608;2023-05-10T12:23:20;100187.00;;;22.40;75.35
45541;BME280;31265;49.680;8.608;2023-05-10T12:25:50;100188.97;;;22.17;74.31
45541;BME280;31265;49.680;8.608;2023-05-10T12:28:21;100186.78;;;22.33;76.87
45541;BME280;31265;49.680;8.608;2023-05-10T12:30:53;100199.75;;;22.03;71.69
45541;BME280;31265;49.680;8.608;2023-05-10T12:33:24;100189.91;;;22.42;70.50
45541;BME280;31265;49.680;8.608;2023-05-10T12:35:54;100194.56;;;22.53;68.20
45541;BME280;31265;49.680;8.608;2023-05-10T12:38:27;100198.47;;;22.44;70.76
45541;BME280;31265;49.680;8.608;2023-05-10T12:40:57;100203.66;;;22.31;73.42
45541;BME280;31265;49.680;8.608;2023-05-10T12:43:26;100202.75;;;22.45;73.01
45541;BME280;31265;49.680;8.608;2023-05-10T12:45:55;100201.88;;;21.84;72.05
45541;BME280;31265;49.680;8.608;2023-05-10T12:48:24;100202.31;;;22.15;72.50
45541;BME280;31265;49.680;8.608;2023-05-10T12:50:52;100209.94;;;21.74;74.14
45541;BME280;31265;49.680;8.608;2023-05-10T12:53:21;100207.03;;;21.54;75.13
45541;BME280;31265;49.680;8.608;2023-05-10T12:55:50;100212.09;;;21.40;78.31
45541;BME280;31265;49.680;8.608;2023-05-10T12:58:19;100205.09;;;20.91;80.79
45541;BME280;31265;49.680;8.608;2023-05-10T13:00:53;100200.94;;;20.45;80.95
45541;BME280;31265;49.680;8.608;2023-05-10T13:03:25;100206.00;;;20.01;84.49
45541;BME280;31265;49.680;8.608;2023-05-10T13:05:54;100204.03;;;19.73;85.68
45541;BME280;31265;49.680;8.608;2023-05-10T13:08:23;100201.31;;;19.75;86.89
45541;BME280;31265;49.680;8.608;2023-05-10T13:10:52;100203.84;;;19.55;87.26
45541;BME280;31265;49.680;8.608;2023-05-10T13:13:20;100208.38;;;19.47;91.03